createdAt,value
2018-02-19T00:00:22.129Z,-1.40
2018-02-19T00:02:50.274Z,-1.40
2018-02-19T00:05:18.394Z,-1.30
2018-02-19T00:07:47.303Z,-1.40
2018-02-19T00:10:15.421Z,-1.40
2018-02-19T00:12:43.569Z,-1.40
2018-02-19T00:15:11.702Z,-1.40
2018-02-19T00:17:40.597Z,-1.30
2018-02-19T00:20:08.717Z,-1.30
2018-02-19T00:22:36.867Z,-1.30
2018-02-19T00:25:04.989Z,-1.40
2018-02-19T00:27:33.123Z,-1.40
2018-02-19T00:30:01.246Z,-1.40
2018-02-19T00:32:30.145Z,-1.50
2018-02-19T00:34:58.312Z,-1.50
2018-02-19T00:37:27.233Z,-1.50
2018-02-19T00:39:55.371Z,-1.50
2018-02-19T00:42:24.272Z,-1.60
2018-02-19T00:44:52.432Z,-1.60
2018-02-19T00:47:20.580Z,-1.60
2018-02-19T00:49:48.709Z,-1.70
2018-02-19T00:52:16.853Z,-1.70
2018-02-19T00:54:44.998Z,-1.70
2018-02-19T00:57:13.134Z,-1.70
2018-02-19T00:59:41.260Z,-1.80
2018-02-19T01:02:10.166Z,-1.70
2018-02-19T01:04:38.296Z,-1.80
2018-02-19T01:07:06.437Z,-1.80
2018-02-19T01:09:34.577Z,-1.90
2018-02-19T01:12:02.719Z,-1.80
2018-02-19T01:14:30.843Z,-1.80
2018-02-19T01:16:58.981Z,-1.90
2018-02-19T01:19:27.889Z,-1.80
2018-02-19T01:21:56.020Z,-1.90
2018-02-19T01:24:24.180Z,-1.90
2018-02-19T01:26:52.320Z,-1.90
2018-02-19T01:29:20.437Z,-1.90
2018-02-19T01:31:49.345Z,-1.90
2018-02-19T01:34:18.243Z,-1.90
2018-02-19T01:36:46.390Z,-2.00
2018-02-19T01:39:14.509Z,-2.00
2018-02-19T01:41:42.654Z,-2.00
2018-02-19T01:44:10.790Z,-2.10
2018-02-19T01:46:38.924Z,-2.00
2018-02-19T01:49:07.062Z,-2.10
2018-02-19T01:51:35.956Z,-2.10
2018-02-19T01:54:04.097Z,-2.20
2018-02-19T01:56:32.237Z,-2.20
2018-02-19T01:59:00.357Z,-2.10
2018-02-19T02:01:29.263Z,-2.20
2018-02-19T02:03:58.144Z,-2.20
2018-02-19T02:06:27.048Z,-2.20
2018-02-19T02:08:55.170Z,-2.20
2018-02-19T02:11:23.310Z,-2.20
2018-02-19T02:13:51.432Z,-2.20
2018-02-19T02:16:20.317Z,-2.20
2018-02-19T02:18:48.458Z,-2.30
2018-02-19T02:21:16.593Z,-2.20
2018-02-19T02:23:44.728Z,-2.30
2018-02-19T02:26:12.896Z,-2.30
2018-02-19T02:28:41.117Z,-2.40
2018-02-19T02:31:09.346Z,-2.40
2018-02-19T02:33:37.489Z,-2.40
2018-02-19T02:36:05.632Z,-2.40
2018-02-19T02:38:33.776Z,-2.40
2018-02-19T02:41:03.078Z,-2.50
2018-02-19T02:43:31.210Z,-2.50
2018-02-19T02:45:59.334Z,-2.50
2018-02-19T02:48:27.473Z,-2.50
2018-02-19T02:50:55.608Z,-2.50
2018-02-19T02:53:23.756Z,-2.50
2018-02-19T02:55:51.896Z,-2.50
2018-02-19T02:58:20.804Z,-2.50
2018-02-19T03:00:49.695Z,-2.60
2018-02-19T03:03:18.589Z,-2.60
2018-02-19T03:05:46.721Z,-2.60
2018-02-19T03:08:14.857Z,-2.60
2018-02-19T03:10:42.984Z,-2.60
2018-02-19T03:13:11.900Z,-2.60
2018-02-19T03:15:40.035Z,-2.60
2018-02-19T03:18:08.174Z,-2.60
2018-02-19T03:20:36.296Z,-2.60
2018-02-19T03:23:05.198Z,-2.70
2018-02-19T03:25:33.325Z,-2.70
2018-02-19T03:28:01.496Z,-2.70
2018-02-19T03:30:29.588Z,-2.70
2018-02-19T03:32:57.726Z,-2.70
2018-02-19T03:35:25.890Z,-2.70
2018-02-19T03:37:54.749Z,-2.80
2018-02-19T03:40:22.898Z,-2.80
2018-02-19T03:42:51.794Z,-2.80
2018-02-19T03:45:20.701Z,-2.80
2018-02-19T03:47:48.831Z,-2.80
2018-02-19T03:50:17.319Z,-2.80
2018-02-19T03:52:45.428Z,-2.80
2018-02-19T03:55:13.562Z,-2.80
2018-02-19T03:57:42.460Z,-2.90
2018-02-19T04:00:11.359Z,-2.90
2018-02-19T04:02:40.249Z,-2.90
2018-02-19T04:05:08.389Z,-2.90
2018-02-19T04:07:36.860Z,-2.90
2018-02-19T04:10:04.995Z,-2.90
2018-02-19T04:12:33.115Z,-2.90
2018-02-19T04:15:01.261Z,-3.00
2018-02-19T04:17:29.388Z,-3.00
2018-02-19T04:19:57.533Z,-3.10
2018-02-19T04:22:27.177Z,-3.10
2018-02-19T04:24:55.308Z,-3.10
2018-02-19T04:27:23.454Z,-3.10
2018-02-19T04:29:51.585Z,-3.10
2018-02-19T04:32:19.725Z,-3.20
2018-02-19T04:34:47.849Z,-3.20
2018-02-19T04:37:15.986Z,-3.30
2018-02-19T04:39:44.967Z,-3.30
2018-02-19T04:42:13.872Z,-3.20
2018-02-19T04:44:42.007Z,-3.20
2018-02-19T04:47:10.139Z,-3.30
2018-02-19T04:49:38.273Z,-3.40
2018-02-19T04:52:06.415Z,-3.60
2018-02-19T04:54:34.918Z,-3.60
2018-02-19T04:57:03.061Z,-3.60
2018-02-19T04:59:31.185Z,-3.60
2018-02-19T05:02:00.105Z,-3.60
2018-02-19T05:04:28.233Z,-3.60
2018-02-19T05:06:56.370Z,-3.50
2018-02-19T05:09:24.597Z,-3.50
2018-02-19T05:11:52.729Z,-3.50
2018-02-19T05:14:20.898Z,-3.60
2018-02-19T05:16:49.024Z,-3.60
2018-02-19T05:19:17.179Z,-3.60
2018-02-19T05:21:45.315Z,-3.60
2018-02-19T05:24:13.452Z,-3.70
2018-02-19T05:26:41.626Z,-3.60
2018-02-19T05:29:09.834Z,-3.60
2018-02-19T05:31:37.978Z,-3.60
2018-02-19T05:34:06.122Z,-3.60
2018-02-19T05:36:34.250Z,-3.50
2018-02-19T05:39:02.385Z,-3.60
2018-02-19T05:41:30.508Z,-3.60
2018-02-19T05:43:59.416Z,-3.70
2018-02-19T05:46:28.385Z,-3.70
2018-02-19T05:48:57.295Z,-3.70
2018-02-19T05:51:25.434Z,-3.70
2018-02-19T05:53:53.553Z,-3.70
2018-02-19T05:56:21.697Z,-3.70
2018-02-19T05:58:50.589Z,-3.60
2018-02-19T06:01:19.493Z,-3.60
2018-02-19T06:03:47.628Z,-3.60
2018-02-19T06:06:15.769Z,-3.50
2018-02-19T06:08:43.896Z,-3.50
2018-02-19T06:11:12.050Z,-3.40
2018-02-19T06:13:40.170Z,-3.30
2018-02-19T06:16:08.531Z,-3.30
2018-02-19T06:18:36.692Z,-3.40
2018-02-19T06:21:05.581Z,-3.30
2018-02-19T06:23:33.705Z,-3.40
2018-02-19T06:26:01.845Z,-3.30
2018-02-19T06:28:29.973Z,-3.30
2018-02-19T06:30:58.880Z,-3.20
2018-02-19T06:33:27.005Z,-3.30
2018-02-19T06:35:55.240Z,-3.20
2018-02-19T06:38:23.363Z,-3.10
2018-02-19T06:40:51.511Z,-3.10
2018-02-19T06:43:20.016Z,-3.00
2018-02-19T06:45:48.896Z,-2.70
2018-02-19T06:48:17.339Z,-2.80
2018-02-19T06:50:45.473Z,-2.40
2018-02-19T06:53:14.365Z,-2.10
2018-02-19T06:55:43.289Z,-2.00
2018-02-19T06:58:11.421Z,-2.00
2018-02-19T07:00:40.312Z,-2.00
2018-02-19T07:03:09.221Z,-2.20
2018-02-19T07:05:37.362Z,-2.20
2018-02-19T07:08:05.500Z,-2.20
2018-02-19T07:10:33.621Z,-2.20
2018-02-19T07:13:01.767Z,-2.20
2018-02-19T07:15:29.893Z,-2.20
2018-02-19T07:17:58.032Z,-2.10
2018-02-19T07:20:26.163Z,-2.00
2018-02-19T07:22:54.307Z,-1.90
2018-02-19T07:25:22.434Z,-1.70
2018-02-19T07:27:51.337Z,-1.30
2018-02-19T07:30:20.277Z,-1.10
2018-02-19T07:32:48.445Z,-1.10
2018-02-19T07:35:16.561Z,-0.60
2018-02-19T07:37:45.467Z,1.50
2018-02-19T07:40:13.602Z,1.50
2018-02-19T07:42:41.742Z,2.20
2018-02-19T07:45:09.884Z,2.50
2018-02-19T07:47:38.068Z,3.00
2018-02-19T07:50:06.206Z,3.40
2018-02-19T07:52:35.089Z,5.80
2018-02-19T07:55:03.291Z,5.80
2018-02-19T07:57:31.430Z,6.70
2018-02-19T07:59:59.571Z,7.80
2018-02-19T08:02:27.742Z,6.90
2018-02-19T08:04:55.877Z,7.30
2018-02-19T08:07:24.003Z,7.10
2018-02-19T08:09:52.141Z,6.60
2018-02-19T08:12:20.273Z,6.50
2018-02-19T08:14:48.425Z,6.20
2018-02-19T08:17:16.554Z,5.70
2018-02-19T08:19:44.718Z,5.70
2018-02-19T08:22:12.853Z,6.20
2018-02-19T08:24:41.841Z,7.80
2018-02-19T08:27:09.928Z,7.80
2018-02-19T08:29:38.112Z,7.10
2018-02-19T08:32:06.353Z,6.50
2018-02-19T08:34:35.299Z,5.50
2018-02-19T08:37:03.390Z,5.50
2018-02-19T08:39:31.548Z,5.10
2018-02-19T08:41:59.685Z,5.10
2018-02-19T08:44:27.832Z,5.00
2018-02-19T08:46:56.731Z,4.20
2018-02-19T08:49:25.640Z,3.70
2018-02-19T08:51:53.757Z,3.60
2018-02-19T08:54:21.909Z,3.10
2018-02-19T08:56:50.053Z,2.50
2018-02-19T08:59:18.177Z,2.50
2018-02-19T09:01:46.320Z,2.80
2018-02-19T09:04:14.441Z,2.70
2018-02-19T09:06:43.345Z,3.00
2018-02-19T09:09:11.477Z,3.00
2018-02-19T09:11:39.629Z,3.50
2018-02-19T09:14:07.742Z,3.30
2018-02-19T09:16:36.643Z,2.40
2018-02-19T09:19:05.549Z,1.40
2018-02-19T09:21:33.708Z,1.40
2018-02-19T09:24:02.594Z,0.90
2018-02-19T09:26:31.205Z,0.90
2018-02-19T09:28:59.363Z,1.40
2018-02-19T09:31:27.510Z,1.20
2018-02-19T09:33:55.630Z,1.10
2018-02-19T09:36:23.757Z,1.10
2018-02-19T09:38:51.889Z,1.00
2018-02-19T09:41:20.042Z,1.50
2018-02-19T09:43:48.177Z,2.20
2018-02-19T09:46:17.060Z,2.30
2018-02-19T09:48:45.189Z,2.30
2018-02-19T09:51:13.314Z,1.90
2018-02-19T09:53:41.450Z,2.00
2018-02-19T09:56:09.565Z,2.40
2018-02-19T09:58:37.725Z,2.40
2018-02-19T10:01:05.957Z,2.00
2018-02-19T10:03:34.273Z,1.60
2018-02-19T10:06:02.409Z,1.60
2018-02-19T10:08:30.553Z,2.00
2018-02-19T10:10:58.773Z,1.90
2018-02-19T10:13:27.673Z,2.00
2018-02-19T10:15:55.889Z,1.90
2018-02-19T10:18:24.032Z,2.40
2018-02-19T10:20:52.149Z,2.70
2018-02-19T10:23:20.300Z,2.50
2018-02-19T10:25:48.417Z,2.40
2018-02-19T10:28:17.318Z,1.50
2018-02-19T10:30:45.540Z,1.50
2018-02-19T10:33:13.665Z,0.90
2018-02-19T10:35:41.803Z,0.90
2018-02-19T10:38:09.937Z,1.10
2018-02-19T10:40:38.074Z,0.80
2018-02-19T10:43:06.976Z,1.30
2018-02-19T10:45:35.166Z,1.30
2018-02-19T10:48:03.321Z,1.30
2018-02-19T10:50:31.456Z,1.60
2018-02-19T10:52:59.578Z,2.00
2018-02-19T10:55:27.717Z,2.10
2018-02-19T10:57:55.842Z,1.70
2018-02-19T11:00:29.680Z,1.90
2018-02-19T11:02:57.880Z,2.70
2018-02-19T11:05:26.032Z,2.60
2018-02-19T11:07:54.165Z,3.20
2018-02-19T11:10:22.300Z,3.90
2018-02-19T11:12:50.426Z,4.00
2018-02-19T11:15:18.571Z,3.90
2018-02-19T11:17:46.732Z,2.90
2018-02-19T11:20:14.888Z,3.30
2018-02-19T11:22:43.009Z,3.40
2018-02-19T11:25:11.157Z,3.20
2018-02-19T11:27:39.274Z,3.30
2018-02-19T11:30:07.424Z,3.30
2018-02-19T11:32:35.640Z,3.90
2018-02-19T11:35:03.780Z,3.70
2018-02-19T11:37:31.913Z,3.50
2018-02-19T11:40:00.137Z,3.10
2018-02-19T11:42:29.033Z,3.70
2018-02-19T11:44:57.158Z,3.70
2018-02-19T11:47:26.098Z,3.40
2018-02-19T11:49:54.239Z,3.40
2018-02-19T11:52:22.415Z,3.00
2018-02-19T11:54:50.542Z,2.50
2018-02-19T11:57:18.680Z,2.20
2018-02-19T11:59:46.822Z,2.80
2018-02-19T12:02:14.969Z,4.00
2018-02-19T12:04:43.105Z,2.90
2018-02-19T12:07:11.278Z,2.90
2018-02-19T12:09:39.434Z,3.00
2018-02-19T12:12:07.600Z,3.30
2018-02-19T12:14:35.714Z,3.30
2018-02-19T12:17:03.861Z,2.50
2018-02-19T12:19:31.976Z,3.00
2018-02-19T12:22:00.121Z,3.80
2018-02-19T12:24:28.249Z,3.60
2018-02-19T12:26:56.414Z,3.10
2018-02-19T12:29:24.540Z,2.80
2018-02-19T12:31:52.795Z,3.10
2018-02-19T12:34:21.069Z,3.50
2018-02-19T12:36:49.251Z,3.80
2018-02-19T12:39:17.374Z,3.90
2018-02-19T12:41:45.501Z,4.30
2018-02-19T12:44:13.636Z,3.80
2018-02-19T12:46:41.761Z,3.50
2018-02-19T12:49:09.952Z,3.10
2018-02-19T12:51:39.577Z,2.90
2018-02-19T12:54:08.599Z,3.10
2018-02-19T12:56:36.724Z,3.10
2018-02-19T12:59:04.864Z,3.30
2018-02-19T13:01:33.111Z,3.20
2018-02-19T13:04:01.289Z,3.20
2018-02-19T13:06:29.425Z,3.30
2018-02-19T13:08:57.786Z,3.80
2018-02-19T13:11:26.012Z,3.20
2018-02-19T13:13:54.152Z,3.10
2018-02-19T13:16:22.293Z,3.30
2018-02-19T13:18:50.413Z,3.80
2018-02-19T13:21:18.630Z,3.90
2018-02-19T13:23:46.794Z,3.80
2018-02-19T13:26:14.924Z,3.40
2018-02-19T13:28:43.070Z,3.40
2018-02-19T13:31:11.213Z,3.60
2018-02-19T13:33:39.361Z,3.60
2018-02-19T13:36:07.514Z,2.70
2018-02-19T13:38:35.645Z,2.40
2018-02-19T13:41:03.840Z,2.90
2018-02-19T13:43:31.924Z,2.70
2018-02-19T13:46:00.071Z,2.90
2018-02-19T13:48:28.975Z,2.20
2018-02-19T13:50:57.865Z,1.70
2018-02-19T13:53:26.781Z,1.90
2018-02-19T13:55:54.926Z,1.80
2018-02-19T13:58:23.813Z,1.70
2018-02-19T14:00:52.793Z,1.80
2018-02-19T14:03:21.687Z,1.90
2018-02-19T14:05:50.589Z,1.50
2018-02-19T14:08:18.983Z,1.40
2018-02-19T14:10:47.120Z,1.60
2018-02-19T14:13:15.301Z,1.30
2018-02-19T14:15:44.210Z,1.40
2018-02-19T14:18:12.331Z,1.40
2018-02-19T14:20:40.462Z,1.20
2018-02-19T14:23:08.622Z,1.40
2018-02-19T14:25:36.758Z,1.70
2018-02-19T14:28:04.903Z,1.70
2018-02-19T14:30:33.094Z,1.60
2018-02-19T14:33:01.255Z,1.70
2018-02-19T14:35:29.381Z,1.50
2018-02-19T14:37:57.559Z,1.60
2018-02-19T14:40:26.452Z,1.30
2018-02-19T14:42:54.646Z,1.30
2018-02-19T14:45:22.729Z,1.10
2018-02-19T14:47:50.901Z,1.30
2018-02-19T14:50:19.026Z,1.20
2018-02-19T14:52:47.157Z,1.10
2018-02-19T14:55:15.277Z,1.10
2018-02-19T14:57:43.418Z,1.10
2018-02-19T15:00:11.617Z,1.00
2018-02-19T15:02:39.769Z,0.70
2018-02-19T15:05:07.949Z,0.70
2018-02-19T15:07:36.083Z,0.80
2018-02-19T15:10:04.310Z,1.00
2018-02-19T15:12:32.448Z,1.00
2018-02-19T15:15:00.581Z,0.70
2018-02-19T15:17:28.734Z,0.70
2018-02-19T15:19:56.934Z,0.60
2018-02-19T15:22:25.072Z,0.70
2018-02-19T15:24:53.233Z,0.50
2018-02-19T15:27:21.358Z,0.50
2018-02-19T15:29:49.511Z,0.60
2018-02-19T15:32:17.630Z,0.60
2018-02-19T15:34:45.786Z,0.50
2018-02-19T15:37:13.927Z,0.40
2018-02-19T15:39:42.050Z,0.20
2018-02-19T15:42:10.937Z,0.10
2018-02-19T15:44:39.096Z,0.10
2018-02-19T15:47:07.997Z,0.10
2018-02-19T15:49:36.144Z,0.10
2018-02-19T15:52:05.818Z,0.00
2018-02-19T15:54:33.969Z,0.00
2018-02-19T15:57:02.126Z,0.00
2018-02-19T15:59:30.257Z,-0.10
2018-02-19T16:01:58.369Z,-0.10
2018-02-19T16:04:26.489Z,-0.20
2018-02-19T16:06:54.627Z,-0.10
2018-02-19T16:09:22.752Z,-0.30
2018-02-19T16:11:50.889Z,-0.30
2018-02-19T16:14:19.007Z,-0.30
2018-02-19T16:16:47.247Z,-0.30
2018-02-19T16:19:15.369Z,-0.30
2018-02-19T16:21:43.538Z,-0.40
2018-02-19T16:24:11.670Z,-0.50
2018-02-19T16:26:39.819Z,-0.50
2018-02-19T16:29:07.949Z,-0.50
2018-02-19T16:31:36.852Z,-0.60
2018-02-19T16:34:04.986Z,-0.70
2018-02-19T16:36:33.204Z,-0.60
2018-02-19T16:39:01.425Z,-0.70
2018-02-19T16:41:29.581Z,-0.60
2018-02-19T16:43:57.768Z,-0.70
2018-02-19T16:46:25.905Z,-0.80
2018-02-19T16:48:54.049Z,-0.90
2018-02-19T16:51:22.185Z,-0.90
2018-02-19T16:53:51.830Z,-1.10
2018-02-19T16:56:19.975Z,-1.10
2018-02-19T16:58:48.115Z,-1.10
2018-02-19T17:01:16.315Z,-1.00
2018-02-19T17:03:44.448Z,-1.10
2018-02-19T17:06:12.615Z,-1.20
2018-02-19T17:08:40.753Z,-1.30
2018-02-19T17:11:08.941Z,-1.40
2018-02-19T17:13:37.840Z,-1.40
2018-02-19T17:16:05.995Z,-1.40
2018-02-19T17:18:34.133Z,-1.50
2018-02-19T17:21:02.271Z,-1.50
2018-02-19T17:23:30.424Z,-1.50
2018-02-19T17:25:58.552Z,-1.50
2018-02-19T17:28:26.698Z,-1.60
2018-02-19T17:30:54.913Z,-1.60
2018-02-19T17:33:23.066Z,-1.60
2018-02-19T17:35:51.189Z,-1.70
2018-02-19T17:38:19.336Z,-1.70
2018-02-19T17:40:47.466Z,-1.60
2018-02-19T17:43:15.613Z,-1.70
2018-02-19T17:45:43.748Z,-1.70
2018-02-19T17:48:11.889Z,-1.80
2018-02-19T17:50:40.778Z,-1.80
2018-02-19T17:53:09.278Z,-1.80
2018-02-19T17:55:38.159Z,-1.90
2018-02-19T17:58:07.168Z,-2.00
2018-02-19T18:00:35.315Z,-2.00
2018-02-19T18:03:03.440Z,-2.00
2018-02-19T18:05:31.702Z,-2.00
2018-02-19T18:08:00.257Z,-2.00
2018-02-19T18:10:29.189Z,-2.00
2018-02-19T18:12:57.314Z,-2.00
2018-02-19T18:15:26.223Z,-2.10
2018-02-19T18:17:54.351Z,-2.10
2018-02-19T18:20:22.500Z,-2.00
2018-02-19T18:22:50.654Z,-2.10
2018-02-19T18:25:18.795Z,-2.10
2018-02-19T18:27:46.922Z,-2.10
2018-02-19T18:30:15.126Z,-2.20
2018-02-19T18:32:44.022Z,-2.20
2018-02-19T18:35:12.929Z,-2.30
2018-02-19T18:37:41.059Z,-2.30
2018-02-19T18:40:09.199Z,-2.20
2018-02-19T18:42:37.341Z,-2.30
2018-02-19T18:45:05.466Z,-2.30
2018-02-19T18:47:33.649Z,-2.40
2018-02-19T18:50:01.784Z,-2.30
2018-02-19T18:52:29.931Z,-2.50
2018-02-19T18:54:58.074Z,-2.50
2018-02-19T18:57:26.222Z,-2.30
2018-02-19T18:59:54.353Z,-2.40
2018-02-19T19:02:22.539Z,-2.40
2018-02-19T19:04:50.635Z,-2.30
2018-02-19T19:07:30.533Z,-2.50
2018-02-19T19:10:11.919Z,-2.50
2018-02-19T19:12:42.772Z,-2.70
2018-02-19T19:15:14.596Z,-2.70
2018-02-19T19:17:44.718Z,-2.70
2018-02-19T19:20:13.678Z,-2.70
2018-02-19T19:22:41.827Z,-2.80
2018-02-19T19:25:09.949Z,-2.80
2018-02-19T19:27:39.000Z,-2.70
2018-02-19T19:30:07.133Z,-2.80
2018-02-19T19:32:35.273Z,-2.80
2018-02-19T19:35:04.370Z,-2.80
2018-02-19T19:37:32.579Z,-2.80
2018-02-19T19:40:00.708Z,-2.80
2018-02-19T19:42:29.982Z,-2.60
2018-02-19T19:44:58.098Z,-2.60
2018-02-19T19:47:26.220Z,-2.40
2018-02-19T19:49:54.425Z,-2.70
2018-02-19T19:52:23.685Z,-2.90
2018-02-19T19:54:51.817Z,-2.90
2018-02-19T19:57:19.945Z,-3.00
2018-02-19T19:59:48.120Z,-2.90
2018-02-19T20:02:17.073Z,-3.00
2018-02-19T20:04:46.173Z,-3.10
2018-02-19T20:07:15.137Z,-3.10
2018-02-19T20:09:43.428Z,-3.10
2018-02-19T20:12:11.578Z,-3.10
2018-02-19T20:14:39.789Z,-3.10
2018-02-19T20:17:08.877Z,-3.10
2018-02-19T20:19:37.164Z,-3.20
2018-02-19T20:22:05.330Z,-3.00
2018-02-19T20:24:33.494Z,-2.80
2018-02-19T20:27:01.632Z,-3.10
2018-02-19T20:29:29.849Z,-3.20
2018-02-19T20:31:58.113Z,-3.30
2018-02-19T20:34:27.237Z,-3.30
2018-02-19T20:36:55.429Z,-3.30
2018-02-19T20:39:24.364Z,-3.30
2018-02-19T20:41:52.511Z,-3.30
2018-02-19T20:44:20.657Z,-3.30
2018-02-19T20:46:48.936Z,-3.40
2018-02-19T20:49:17.834Z,-3.30
2018-02-19T20:51:46.897Z,-3.40
2018-02-19T20:54:15.980Z,-3.30
2018-02-19T20:56:44.273Z,-3.30
2018-02-19T20:59:12.441Z,-3.30
2018-02-19T21:01:41.364Z,-3.20
2018-02-19T21:04:10.269Z,-3.20
2018-02-19T21:06:38.416Z,-3.30
2018-02-19T21:09:07.645Z,-3.20
2018-02-19T21:11:36.990Z,-3.30
2018-02-19T21:14:07.534Z,-3.30
2018-02-19T21:16:37.557Z,-3.30
2018-02-19T21:19:07.055Z,-3.50
2018-02-19T21:21:37.125Z,-3.50
2018-02-19T21:24:06.569Z,-3.40
2018-02-19T21:26:35.153Z,-3.50
2018-02-19T21:29:03.719Z,-3.40
2018-02-19T21:31:32.271Z,-3.50
2018-02-19T21:34:00.588Z,-3.50
2018-02-19T21:36:28.748Z,-3.50
2018-02-19T21:38:57.146Z,-3.50
2018-02-19T21:41:26.897Z,-3.60
2018-02-19T21:43:55.065Z,-3.60
2018-02-19T21:46:23.225Z,-3.70
2018-02-19T21:48:51.364Z,-3.80
2018-02-19T21:51:19.516Z,-3.70
2018-02-19T21:53:47.729Z,-3.80
2018-02-19T21:56:16.637Z,-3.90
2018-02-19T21:58:44.827Z,-3.90
2018-02-19T22:01:12.971Z,-3.80
2018-02-19T22:03:41.122Z,-3.70
2018-02-19T22:06:10.013Z,-3.70
2018-02-19T22:08:38.937Z,-3.70
2018-02-19T22:11:07.157Z,-3.70
2018-02-19T22:13:35.333Z,-3.70
2018-02-19T22:16:03.478Z,-3.70
2018-02-19T22:18:31.655Z,-3.70
2018-02-19T22:21:00.876Z,-3.60
2018-02-19T22:23:29.017Z,-3.60
2018-02-19T22:25:57.146Z,-3.60
2018-02-19T22:28:26.098Z,-3.60
2018-02-19T22:30:54.213Z,-3.60
2018-02-19T22:33:22.384Z,-3.60
2018-02-19T22:35:50.561Z,-3.50
2018-02-19T22:38:18.741Z,-3.50
2018-02-19T22:40:47.009Z,-3.40
2018-02-19T22:43:15.149Z,-3.40
2018-02-19T22:45:43.300Z,-3.40
2018-02-19T22:48:11.533Z,-3.40
2018-02-19T22:50:39.692Z,-3.40
2018-02-19T22:53:09.021Z,-3.40
2018-02-19T22:55:37.165Z,-3.40
2018-02-19T22:58:05.305Z,-3.30
2018-02-19T23:00:33.479Z,-3.40
2018-02-19T23:03:01.611Z,-3.40
2018-02-19T23:05:29.765Z,-3.30
2018-02-19T23:07:57.926Z,-3.30
2018-02-19T23:10:26.100Z,-3.30
2018-02-19T23:12:54.229Z,-3.20
2018-02-19T23:15:22.389Z,-3.20
2018-02-19T23:17:50.527Z,-3.20
2018-02-19T23:20:19.374Z,-3.20
2018-02-19T23:22:47.505Z,-3.10
2018-02-19T23:25:15.628Z,-3.10
2018-02-19T23:27:44.553Z,-2.90
2018-02-19T23:30:12.679Z,-2.90
2018-02-19T23:32:41.586Z,-2.50
2018-02-19T23:35:09.744Z,-2.60
2018-02-19T23:37:37.852Z,-2.40
2018-02-19T23:40:05.976Z,-2.40
2018-02-19T23:42:34.121Z,-2.30
2018-02-19T23:45:02.254Z,-2.40
2018-02-19T23:47:30.398Z,-2.60
2018-02-19T23:49:59.298Z,-2.70
2018-02-19T23:52:28.205Z,-2.40
2018-02-19T23:54:56.341Z,-2.40
2018-02-19T23:57:25.126Z,-2.50
2018-02-19T23:59:53.293Z,-2.30
